Time;durP1;ratioP1;P1;durP2;ratioP2;P2;SDS_P1;SDS_P2;PMS_P1;PMS_P2;Temp;Humidity;BMP_temperature;BMP_pressure;BME280_temperature;BME280_humidity;BME280_pressure;Samples;Min_cycle;Max_cycle;Signal;HPM_P1;HPM_P2
2022/03/23 00:00:46;;;;;;;38.20;34.40;;;;;;;6.32;40.37;99560.85;106497;1271;22544;-77
2022/03/23 00:03:15;;;;;;;43.20;38.50;;;;;;;6.31;40.52;99560.01;105982;1274;24309;-77
2022/03/23 00:05:44;;;;;;;41.90;37.60;;;;;;;6.27;40.36;99564.39;106513;1271;22703;-75
2022/03/23 00:08:12;;;;;;;47.60;42.90;;;;;;;6.19;40.34;99558.42;106387;1271;22541;-75
2022/03/23 00:10:40;;;;;;;43.50;39.20;;;;;;;6.12;40.84;99559.09;106271;1271;22546;-75
2022/03/23 00:13:08;;;;;;;40.80;36.60;;;;;;;6.06;40.68;99560.65;106154;1271;22541;-75
2022/03/23 00:15:36;;;;;;;39.00;34.90;;;;;;;5.96;40.42;99560.06;105933;1271;22541;-76
2022/03/23 00:18:04;;;;;;;44.20;39.40;;;;;;;5.78;40.56;99558.80;105995;1271;22841;-75
2022/03/23 00:20:32;;;;;;;45.40;40.40;;;;;;;5.59;40.78;99561.45;105986;1271;22891;-75
2022/03/23 00:23:00;;;;;;;75.40;66.90;;;;;;;5.36;41.44;99556.16;105977;1271;22866;-74
2022/03/23 00:25:28;;;;;;;51.90;46.60;;;;;;;5.21;41.36;99554.40;106134;1271;24324;-71
2022/03/23 00:27:56;;;;;;;53.00;47.00;;;;;;;5.06;41.43;99556.79;106018;1271;24380;-76
2022/03/23 00:30:24;;;;;;;43.50;38.90;;;;;;;4.80;41.02;99557.02;105872;1271;153917;-75
2022/03/23 00:32:59;;;;;;;54.10;44.40;;;;;;;4.47;41.36;99557.84;105986;1271;22751;-75
2022/03/23 00:35:26;;;;;;;53.60;45.30;;;;;;;4.19;41.47;99554.15;106106;1271;22531;-73
2022/03/23 00:37:55;;;;;;;57.30;42.60;;;;;;;4.01;43.02;99554.52;105992;1271;24288;-74
2022/03/23 00:40:28;;;;;;;52.00;46.50;;;;;;;3.90;43.53;99552.61;106097;1271;22602;-74
2022/03/23 00:43:01;;;;;;;51.00;45.70;;;;;;;3.83;43.74;99546.30;106177;1271;24227;-75
2022/03/23 00:45:31;;;;;;;52.80;46.70;;;;;;;3.80;43.00;99546.02;106077;1271;22623;-75
2022/03/23 00:47:59;;;;;;;58.10;51.70;;;;;;;3.71;42.87;99542.52;105955;1271;25524;-75
2022/03/23 00:50:26;;;;;;;53.50;45.60;;;;;;;3.60;43.54;99541.39;106053;1271;22560;-75
2022/03/23 00:52:54;;;;;;;65.40;51.50;;;;;;;3.53;43.88;99537.73;106131;1271;25487;-74
2022/03/23 00:55:22;;;;;;;62.80;48.10;;;;;;;3.47;43.45;99534.27;106116;1271;23185;-73
2022/03/23 00:57:50;;;;;;;83.40;71.40;;;;;;;3.37;43.42;99534.52;106123;1271;25369;-74
2022/03/23 01:00:20;;;;;;;65.40;58.60;;;;;;;3.28;43.54;99535.91;106180;1271;22860;-75
2022/03/23 01:02:49;;;;;;;50.90;45.70;;;;;;;3.18;43.55;99534.34;106237;1271;22525;-77
2022/03/23 01:05:17;;;;;;;50.00;44.80;;;;;;;3.11;43.81;99525.73;106252;1271;22750;-75
2022/03/23 01:07:47;;;;;;;56.40;50.00;;;;;;;2.96;43.81;99522.95;106066;1271;26630;-74
2022/03/23 01:10:15;;;;;;;52.80;47.20;;;;;;;2.78;43.94;99519.70;106020;1272;22644;-76
2022/03/23 01:12:45;;;;;;;48.20;43.00;;;;;;;2.61;44.16;99520.59;106033;1271;22588;-76
2022/03/23 01:15:16;;;;;;;54.30;48.90;;;;;;;2.50;44.29;99515.58;106163;1271;23943;-77
2022/03/23 01:17:44;;;;;;;50.60;45.70;;;;;;;2.42;44.42;99509.93;106074;1271;25323;-75
2022/03/23 01:20:14;;;;;;;53.50;48.00;;;;;;;2.34;44.65;99509.54;105940;1271;22611;-76
2022/03/23 01:22:44;;;;;;;52.70;47.00;;;;;;;2.22;44.66;99505.77;106232;1271;25376;-75
2022/03/23 01:25:18;;;;;;;57.90;52.00;;;;;;;2.06;45.44;99503.31;105992;1271;22668;-75
2022/03/23 01:27:47;;;;;;;66.80;59.80;;;;;;;1.94;45.30;99504.66;106004;1271;22602;-75
2022/03/23 01:30:17;;;;;;;54.80;48.70;;;;;;;1.84;45.38;99503.09;105983;1271;25579;-76
2022/03/23 01:32:45;;;;;;;54.00;48.80;;;;;;;1.76;45.54;99500.75;106080;1271;25349;-77
2022/03/23 01:35:14;;;;;;;55.90;50.30;;;;;;;1.70;45.61;99501.19;106109;1271;24472;-76
2022/03/23 01:37:43;;;;;;;57.80;52.00;;;;;;;1.64;45.79;99506.36;106337;1271;22697;-76
2022/03/23 01:40:12;;;;;;;73.20;63.30;;;;;;;1.62;45.97;99503.88;106061;1271;24259;-76
2022/03/23 01:42:41;;;;;;;61.90;55.00;;;;;;;1.59;46.14;99500.39;106162;1271;25442;-76
2022/03/23 01:45:10;;;;;;;55.10;49.40;;;;;;;1.51;46.15;99500.69;105957;1271;24305;-74
2022/03/23 01:47:38;;;;;;;55.20;49.10;;;;;;;1.39;46.34;99503.02;106193;1270;22550;-76
2022/03/23 01:50:08;;;;;;;53.20;47.40;;;;;;;1.25;46.46;99502.25;105956;1271;23486;-76
2022/03/23 01:52:38;;;;;;;49.10;44.10;;;;;;;1.16;47.12;99499.69;106262;1271;25519;-75
2022/03/23 01:55:10;;;;;;;68.50;61.70;;;;;;;1.11;47.08;99495.05;106002;1271;24340;-75
2022/03/23 01:57:41;;;;;;;59.00;52.70;;;;;;;1.09;47.31;99489.90;105988;1271;24433;-77
2022/03/23 02:00:11;;;;;;;59.20;53.40;;;;;;;1.09;47.19;99488.83;105953;1271;25484;-76
2022/03/23 02:02:42;;;;;;;57.20;51.40;;;;;;;1.07;47.15;99488.09;105964;1271;22620;-75
2022/03/23 02:05:14;;;;;;;53.20;47.60;;;;;;;1.07;47.46;99486.36;106222;1271;22681;-75
2022/03/23 02:07:48;;;;;;;59.90;53.70;;;;;;;1.08;47.40;99478.11;105941;1271;22548;-76
2022/03/23 02:10:17;;;;;;;58.50;52.60;;;;;;;1.07;47.56;99476.33;105932;1271;24389;-74
2022/03/23 02:13:02;;;;;;;140.60;104.70;;;;;;;0.98;48.29;99473.27;105934;1271;22746;-75
2022/03/23 02:15:30;;;;;;;66.90;60.20;;;;;;;0.92;48.27;99470.45;105954;1274;22698;-76
2022/03/23 02:17:58;;;;;;;61.40;55.30;;;;;;;0.88;47.96;99471.09;105909;1271;22778;-74
2022/03/23 02:20:26;;;;;;;55.20;49.70;;;;;;;0.87;48.24;99472.48;105937;1271;24078;-74
2022/03/23 02:22:54;;;;;;;56.90;51.10;;;;;;;0.81;48.37;99476.45;105988;1271;22551;-74
2022/03/23 02:25:27;;;;;;;64.70;57.90;;;;;;;0.69;49.03;99482.92;106020;1271;24105;-76
2022/03/23 02:27:56;;;;;;;63.20;56.60;;;;;;;0.56;48.98;99482.15;106146;1271;24348;-76
2022/03/23 02:30:24;;;;;;;60.40;53.90;;;;;;;0.51;49.16;99481.91;106025;1271;24090;-75
2022/03/23 02:32:52;;;;;;;72.10;64.60;;;;;;;0.54;49.09;99477.84;106105;1271;22552;-74
2022/03/23 02:35:20;;;;;;;60.10;53.60;;;;;;;0.63;49.29;99480.59;106041;1274;24429;-75
2022/03/23 02:37:48;;;;;;;56.30;50.40;;;;;;;0.72;49.07;99479.79;106036;1274;24562;-75
2022/03/23 02:40:16;;;;;;;84.10;70.90;;;;;;;0.74;49.12;99474.99;105994;1271;24279;-75
2022/03/23 02:42:44;;;;;;;53.00;47.60;;;;;;;0.73;49.52;99474.86;106034;1271;22544;-76
2022/03/23 02:45:12;;;;;;;54.10;48.50;;;;;;;0.67;49.89;99475.08;106053;1271;25461;-76
2022/03/23 02:47:41;;;;;;;54.30;49.00;;;;;;;0.66;49.71;99475.19;105990;1271;22635;-75
2022/03/23 02:50:09;;;;;;;57.00;51.30;;;;;;;0.70;49.70;99468.14;105984;1271;24099;-75
2022/03/23 03:01:52;;;;;;;56.10;50.80;;;;;;;0.68;49.72;99466.09;105977;1274;22772;-76
2022/03/23 03:04:04;;;;;;;53.30;47.50;;;;;;;0.48;50.52;99463.66;105977;1271;22523;-75
2022/03/23 03:06:31;;;;;;;58.50;52.90;;;;;;;0.37;50.96;99470.40;105934;1271;22708;-76
2022/03/23 03:09:00;;;;;;;56.70;51.00;;;;;;;0.33;51.65;99475.95;105968;1270;22566;-76
2022/03/23 03:11:28;;;;;;;57.60;51.60;;;;;;;0.37;51.19;99468.98;105979;1271;22543;-74
2022/03/23 03:13:56;;;;;;;56.60;51.10;;;;;;;0.47;51.13;99470.04;105962;1271;22599;-75
2022/03/23 03:16:24;;;;;;;58.30;52.60;;;;;;;0.55;51.02;99470.02;106150;1271;25397;-74
2022/03/23 03:18:52;;;;;;;60.90;54.50;;;;;;;0.63;51.18;99466.48;106073;1271;22775;-76
2022/03/23 03:21:20;;;;;;;53.80;48.60;;;;;;;0.62;50.80;99471.00;106037;1271;22761;-76
2022/03/23 03:23:48;;;;;;;55.00;49.80;;;;;;;0.45;50.65;99472.70;106035;1271;23184;-76
2022/03/23 03:26:17;;;;;;;55.80;50.30;;;;;;;0.32;51.07;99477.05;106218;1271;23974;-75
2022/03/23 03:28:45;;;;;;;55.80;50.30;;;;;;;0.22;52.11;99483.19;105982;1271;22613;-75
2022/03/23 03:31:15;;;;;;;58.60;52.30;;;;;;;0.23;51.64;99481.44;106137;1271;22559;-75
2022/03/23 03:33:44;;;;;;;71.50;64.00;;;;;;;0.31;52.02;99476.77;106466;1271;25189;-76
2022/03/23 03:36:12;;;;;;;62.30;56.10;;;;;;;0.43;51.90;99473.54;106187;1271;24237;-75
2022/03/23 03:38:44;;;;;;;56.30;50.70;;;;;;;0.53;51.84;99470.29;106042;1271;22711;-77
2022/03/23 03:41:12;;;;;;;54.20;48.90;;;;;;;0.57;51.48;99473.17;106236;1271;25749;-76
2022/03/23 03:43:40;;;;;;;57.00;50.80;;;;;;;0.49;51.25;99478.46;106141;1271;22938;-75
2022/03/23 03:46:10;;;;;;;86.20;73.80;;;;;;;0.32;51.50;99475.23;106441;1271;24242;-75
2022/03/23 03:48:40;;;;;;;70.10;62.90;;;;;;;0.21;51.67;99471.70;106166;1271;22617;-74
2022/03/23 03:51:09;;;;;;;60.20;54.50;;;;;;;0.15;51.79;99473.67;106149;1271;22541;-75
2022/03/23 03:53:37;;;;;;;62.20;52.40;;;;;;;0.04;51.62;99471.05;106285;1271;22605;-74
2022/03/23 03:56:09;;;;;;;59.60;53.90;;;;;;;-0.12;51.93;99469.69;106307;1271;24438;-76
2022/03/23 03:58:38;;;;;;;76.90;69.40;;;;;;;-0.23;51.99;99469.11;106285;1271;22553;-76
2022/03/23 04:01:06;;;;;;;80.20;72.70;;;;;;;-0.29;52.27;99463.48;106152;1271;22553;-73
2022/03/23 04:03:35;;;;;;;68.90;62.00;;;;;;;-0.32;52.50;99463.09;105996;1271;22535;-74
2022/03/23 04:06:06;;;;;;;60.20;54.30;;;;;;;-0.34;52.57;99463.31;106247;1271;22526;-76
2022/03/23 04:08:34;;;;;;;64.00;51.50;;;;;;;-0.43;52.11;99460.36;106243;1271;22538;-76
2022/03/23 04:11:03;;;;;;;51.40;46.20;;;;;;;-0.51;52.43;99461.60;106223;1271;24353;-74
2022/03/23 04:13:31;;;;;;;56.60;51.20;;;;;;;-0.57;53.05;99463.70;106065;1271;22722;-76
2022/03/23 04:15:59;;;;;;;60.40;54.00;;;;;;;-0.59;53.76;99464.36;106216;1271;22756;-75
2022/03/23 04:18:28;;;;;;;79.10;69.80;;;;;;;-0.57;54.02;99459.42;106022;1271;22695;-75
2022/03/23 04:20:57;;;;;;;67.40;60.50;;;;;;;-0.49;53.84;99457.55;105910;1271;25451;-75
2022/03/23 04:23:32;;;;;;;67.60;60.90;;;;;;;-0.45;53.53;99458.71;106255;1271;25395;-74
2022/03/23 04:26:00;;;;;;;70.70;63.20;;;;;;;-0.50;53.42;99456.52;105990;1271;22579;-75
2022/03/23 04:28:28;;;;;;;73.30;64.30;;;;;;;-0.52;53.61;99451.13;106157;1271;22800;-76
2022/03/23 04:30:57;;;;;;;70.00;62.10;;;;;;;-0.50;53.76;99452.80;105971;1271;22692;-75
2022/03/23 04:33:25;;;;;;;69.70;62.20;;;;;;;-0.50;53.72;99452.27;106186;1271;22702;-76
2022/03/23 04:35:53;;;;;;;69.90;62.30;;;;;;;-0.57;53.68;99451.75;105945;1271;22604;-76
2022/03/23 04:38:21;;;;;;;78.90;68.50;;;;;;;-0.71;53.51;99450.30;106106;1271;25235;-75
2022/03/23 04:40:49;;;;;;;123.30;84.90;;;;;;;-0.86;53.98;99449.65;105925;1271;22556;-76
2022/03/23 04:43:18;;;;;;;90.70;74.90;;;;;;;-0.99;54.03;99450.33;106159;1271;23964;-75
2022/03/23 04:45:46;;;;;;;79.10;68.60;;;;;;;-1.08;54.07;99453.20;106083;1271;25487;-75
2022/03/23 04:48:14;;;;;;;78.00;64.50;;;;;;;-1.10;54.23;99450.60;106270;1271;23913;-75
2022/03/23 04:50:42;;;;;;;70.00;60.10;;;;;;;-1.07;54.20;99453.97;106107;1271;22549;-76
2022/03/23 04:53:10;;;;;;;136.00;89.40;;;;;;;-1.03;54.49;99451.01;106072;1271;25337;-78
2022/03/23 04:55:39;;;;;;;126.60;92.60;;;;;;;-0.99;54.84;99454.73;106209;1271;22614;-77
2022/03/23 04:58:07;;;;;;;163.50;105.30;;;;;;;-0.93;55.15;99451.54;105987;1271;22644;-75
2022/03/23 05:00:35;;;;;;;95.60;79.10;;;;;;;-0.86;55.01;99454.41;106126;1271;22576;-75
2022/03/23 05:03:07;;;;;;;74.80;67.30;;;;;;;-0.85;54.88;99455.65;106076;1271;24233;-76
2022/03/23 05:05:35;;;;;;;128.60;98.90;;;;;;;-0.94;54.79;99456.70;106338;1271;25331;-76
2022/03/23 05:08:03;;;;;;;120.70;88.60;;;;;;;-0.96;55.13;99457.45;106178;1271;22540;-75
2022/03/23 05:10:31;;;;;;;129.40;93.20;;;;;;;-0.92;55.14;99459.29;106493;1271;22934;-75
2022/03/23 05:12:59;;;;;;;136.80;99.70;;;;;;;-0.87;55.52;99455.23;107029;1271;22592;-75
2022/03/23 05:15:27;;;;;;;128.90;89.10;;;;;;;-0.82;55.44;99453.77;106523;1271;22634;-75
2022/03/23 05:17:56;;;;;;;88.00;74.10;;;;;;;-0.76;55.34;99455.30;106388;1271;22549;-75
2022/03/23 05:20:24;;;;;;;115.60;85.70;;;;;;;-0.70;55.24;99450.41;106214;1271;23110;-75
2022/03/23 05:22:53;;;;;;;100.00;76.90;;;;;;;-0.64;55.25;99447.95;106224;1271;24238;-75
2022/03/23 05:25:21;;;;;;;78.80;70.00;;;;;;;-0.57;55.39;99440.80;106018;1271;23922;-77
2022/03/23 05:27:49;;;;;;;84.00;71.10;;;;;;;-0.51;55.36;99442.45;106268;1271;22544;-75
2022/03/23 05:30:17;;;;;;;81.20;70.40;;;;;;;-0.39;55.55;99438.08;106273;1271;22718;-75
2022/03/23 05:32:45;;;;;;;105.50;80.10;;;;;;;-0.29;55.75;99439.77;106122;1269;25527;-75
2022/03/23 05:35:14;;;;;;;127.10;81.40;;;;;;;-0.25;55.89;99441.75;106163;1271;23332;-76
2022/03/23 05:37:42;;;;;;;106.30;77.80;;;;;;;-0.20;56.22;99443.63;106301;1271;25313;-76
2022/03/23 05:40:11;;;;;;;93.90;72.20;;;;;;;-0.12;57.40;99439.59;106041;1271;22939;-76
2022/03/23 05:42:40;;;;;;;73.90;65.90;;;;;;;0.05;57.42;99443.26;106182;1271;22642;-76
2022/03/23 05:45:09;;;;;;;80.60;68.00;;;;;;;0.25;56.93;99441.71;106331;1271;23947;-76
2022/03/23 05:47:37;;;;;;;82.90;66.60;;;;;;;0.48;56.73;99447.41;106049;1269;26794;-77
2022/03/23 05:50:07;;;;;;;134.60;82.10;;;;;;;0.71;57.26;99443.77;106259;1270;25521;-75
2022/03/23 05:52:39;;;;;;;190.90;118.70;;;;;;;0.93;57.88;99445.91;106201;1271;22642;-74
2022/03/23 05:55:08;;;;;;;154.20;96.40;;;;;;;1.13;56.97;99443.67;106244;1271;23996;-75
2022/03/23 05:57:37;;;;;;;107.40;82.20;;;;;;;1.31;56.68;99438.65;106257;1271;23055;-77
2022/03/23 06:00:08;;;;;;;149.90;87.60;;;;;;;1.48;56.59;99443.15;106039;1271;25222;-76
2022/03/23 06:02:41;;;;;;;124.60;83.00;;;;;;;1.63;56.23;99443.08;106244;1271;22535;-75
2022/03/23 06:05:10;;;;;;;125.80;88.60;;;;;;;1.76;56.04;99447.39;106257;1271;25552;-76
2022/03/23 06:07:39;;;;;;;160.40;91.20;;;;;;;1.88;55.91;99447.15;106229;1271;22688;-76
2022/03/23 06:10:07;;;;;;;146.30;95.10;;;;;;;1.99;56.00;99448.42;106260;1271;25379;-76
2022/03/23 06:12:36;;;;;;;152.50;94.30;;;;;;;2.10;55.92;99444.69;106094;1271;22704;-76
2022/03/23 06:15:06;;;;;;;167.30;106.00;;;;;;;2.20;55.83;99445.30;106473;1271;24230;-74
2022/03/23 06:17:35;;;;;;;158.90;97.50;;;;;;;2.32;55.94;99442.63;106603;1271;22557;-77
2022/03/23 06:20:05;;;;;;;140.70;93.10;;;;;;;2.44;55.93;99444.12;106666;1271;25357;-74
2022/03/23 06:22:33;;;;;;;145.40;88.80;;;;;;;2.58;55.81;99439.45;107423;1271;25283;-74
2022/03/23 06:25:00;;;;;;;130.60;87.60;;;;;;;2.74;55.63;99436.35;106201;1271;22636;-75
2022/03/23 06:27:28;;;;;;;126.00;82.20;;;;;;;2.92;55.73;99432.46;106144;1271;22550;-75
2022/03/23 06:29:56;;;;;;;101.60;78.00;;;;;;;3.13;55.73;99436.80;106137;1271;24615;-74
2022/03/23 06:32:24;;;;;;;110.90;79.80;;;;;;;3.35;55.57;99439.88;106156;1271;23967;-76
2022/03/23 06:34:52;;;;;;;115.20;80.80;;;;;;;3.55;55.40;99438.98;106272;1271;26629;-75
2022/03/23 06:37:20;;;;;;;182.50;109.00;;;;;;;3.76;55.46;99441.42;106237;1270;22548;-77
2022/03/23 06:39:48;;;;;;;162.60;91.70;;;;;;;3.97;55.30;99443.94;106255;1271;22649;-75
2022/03/23 06:42:16;;;;;;;123.40;83.30;;;;;;;4.19;55.16;99442.75;106037;1274;23342;-76
2022/03/23 06:44:44;;;;;;;123.00;81.00;;;;;;;4.41;55.11;99442.21;106077;1271;22536;-75
2022/03/23 06:47:11;;;;;;;101.00;77.60;;;;;;;4.66;54.92;99448.78;106161;1271;22556;-75
2022/03/23 06:49:39;;;;;;;101.90;77.20;;;;;;;4.90;54.89;99450.68;105976;1271;22958;-75
2022/03/23 06:52:07;;;;;;;131.70;79.60;;;;;;;5.12;54.75;99450.83;106213;1271;22662;-76
2022/03/23 06:54:35;;;;;;;137.80;80.50;;;;;;;5.34;54.60;99449.13;105965;1271;22642;-76
2022/03/23 06:57:03;;;;;;;125.70;89.80;;;;;;;5.57;54.60;99452.16;106166;1271;22544;-76
2022/03/23 06:59:31;;;;;;;170.40;106.30;;;;;;;5.81;54.41;99452.10;106042;1271;23945;-76
2022/03/23 07:01:59;;;;;;;183.00;105.60;;;;;;;6.01;54.24;99452.21;106258;1271;25388;-76
2022/03/23 07:04:27;;;;;;;167.60;96.60;;;;;;;6.20;54.03;99452.49;106023;1271;25373;-76
2022/03/23 07:06:55;;;;;;;161.60;97.80;;;;;;;6.35;53.88;99450.81;106197;1271;22564;-76
2022/03/23 07:09:32;;;;;;;159.10;98.20;;;;;;;6.50;53.64;99452.05;105955;1271;25317;-75
2022/03/23 07:12:03;;;;;;;173.40;92.40;;;;;;;6.64;53.57;99445.89;106230;1271;22998;-75
2022/03/23 07:14:33;;;;;;;187.40;95.40;;;;;;;6.79;53.47;99448.50;106278;1271;25449;-74
2022/03/23 07:17:00;;;;;;;151.20;92.40;;;;;;;6.94;53.28;99451.01;106202;1271;25306;-75
2022/03/23 07:19:28;;;;;;;135.40;86.80;;;;;;;7.09;53.27;99443.08;106172;1271;22655;-75
2022/03/23 07:21:56;;;;;;;121.50;83.70;;;;;;;7.25;53.10;99446.06;106014;1271;22714;-74
2022/03/23 07:24:24;;;;;;;68.40;61.30;;;;;;;7.41;52.90;99444.90;106188;1271;24103;-76
2022/03/23 07:26:53;;;;;;;68.50;61.10;;;;;;;7.59;52.51;99443.84;106258;1271;25502;-76
2022/03/23 07:29:41;;;;;;;59.70;53.70;;;;;;;7.79;52.36;99439.59;106210;1271;22633;-74
2022/03/23 07:32:09;;;;;;;62.30;53.30;;;;;;;7.97;52.10;99442.67;105967;1271;22579;-75
2022/03/23 07:34:37;;;;;;;74.30;53.30;;;;;;;8.14;51.90;99438.16;106288;1271;24094;-74
2022/03/23 07:37:05;;;;;;;53.90;48.10;;;;;;;8.31;51.74;99435.52;106186;1271;22741;-75
2022/03/23 07:39:33;;;;;;;52.00;46.70;;;;;;;8.50;51.54;99438.28;106180;1271;22664;-76
2022/03/23 07:42:02;;;;;;;55.90;50.30;;;;;;;8.67;51.29;99432.77;106273;1271;23205;-76
2022/03/23 07:44:34;;;;;;;54.00;48.40;;;;;;;8.84;50.87;99430.84;106241;1271;22521;-76
2022/03/23 07:47:07;;;;;;;56.80;47.70;;;;;;;9.01;50.89;99430.73;106224;1271;24355;-76
2022/03/23 07:49:35;;;;;;;52.10;45.90;;;;;;;9.19;50.34;99431.80;106258;1271;22690;-75
2022/03/23 07:52:04;;;;;;;52.50;46.80;;;;;;;9.37;50.55;99431.98;106259;1271;25250;-76
2022/03/23 07:54:32;;;;;;;56.50;47.70;;;;;;;9.54;50.20;99432.33;106037;1271;24381;-75
2022/03/23 07:57:00;;;;;;;54.80;47.50;;;;;;;9.70;49.84;99435.27;106223;1271;22559;-76
2022/03/23 07:59:28;;;;;;;57.30;48.00;;;;;;;9.85;49.26;99433.36;106200;1271;22549;-76
2022/03/23 08:01:56;;;;;;;69.40;49.90;;;;;;;9.97;49.14;99433.80;106226;1271;25250;-76
2022/03/23 08:04:24;;;;;;;68.20;52.30;;;;;;;10.11;48.79;99435.78;106172;1271;25492;-75
2022/03/23 08:06:53;;;;;;;71.80;48.20;;;;;;;10.25;48.86;99430.93;105985;1271;23973;-75
2022/03/23 08:09:21;;;;;;;68.50;52.20;;;;;;;10.38;48.80;99427.92;105998;1271;24530;-76
2022/03/23 08:11:49;;;;;;;54.50;45.10;;;;;;;10.53;48.47;99429.27;106228;1271;23097;-76
2022/03/23 08:14:17;;;;;;;64.10;55.30;;;;;;;10.67;48.16;99427.39;106452;1271;22700;-79
2022/03/23 08:16:46;;;;;;;55.10;43.90;;;;;;;10.81;48.01;99427.78;106262;1271;22561;-77
2022/03/23 08:19:14;;;;;;;80.40;52.60;;;;;;;10.97;47.91;99428.44;105984;1271;26611;-77
2022/03/23 08:21:42;;;;;;;63.10;41.70;;;;;;;11.11;47.43;99430.45;106036;1272;22556;-76
2022/03/23 08:24:10;;;;;;;302.10;137.80;;;;;;;11.24;47.23;99424.66;106322;1271;22774;-77
2022/03/23 08:26:38;;;;;;;55.70;44.30;;;;;;;11.38;46.57;99425.77;106555;1271;22655;-76
2022/03/23 08:29:06;;;;;;;45.80;35.50;;;;;;;11.52;46.19;99427.59;106367;1271;23210;-77
2022/03/23 08:31:34;;;;;;;39.50;32.60;;;;;;;11.67;45.42;99425.44;106336;1271;24163;-76
2022/03/23 08:34:04;;;;;;;34.30;30.00;;;;;;;11.83;45.37;99421.80;106225;1270;22691;-76
2022/03/23 08:36:33;;;;;;;39.60;33.50;;;;;;;11.98;45.15;99418.59;106284;1271;24080;-76
2022/03/23 08:39:01;;;;;;;38.80;32.40;;;;;;;12.13;44.58;99417.55;106167;1271;23568;-76
2022/03/23 08:41:34;;;;;;;38.40;34.30;;;;;;;12.28;44.35;99417.91;106089;1271;22511;-76
2022/03/23 08:44:03;;;;;;;35.90;31.60;;;;;;;12.43;44.08;99418.85;106125;1271;24250;-78
2022/03/23 08:46:31;;;;;;;37.40;31.20;;;;;;;12.58;43.96;99417.09;107005;1271;24241;-77
2022/03/23 08:48:59;;;;;;;93.80;47.40;;;;;;;12.74;44.09;99414.08;106861;1271;25365;-77
2022/03/23 08:51:27;;;;;;;44.80;32.20;;;;;;;12.90;43.91;99413.90;106636;1271;24224;-80
2022/03/23 08:53:55;;;;;;;36.40;32.60;;;;;;;13.05;43.27;99411.46;106655;1271;22685;-78
2022/03/23 08:56:25;;;;;;;36.70;32.80;;;;;;;13.21;43.41;99409.66;106208;1271;23219;-78
2022/03/23 08:58:53;;;;;;;38.50;33.10;;;;;;;13.36;42.85;99401.81;106665;1271;25487;-80
2022/03/23 09:01:21;;;;;;;38.30;32.80;;;;;;;13.50;42.82;99397.16;106585;1271;25371;-76
2022/03/23 09:03:49;;;;;;;43.50;33.40;;;;;;;13.66;42.44;99397.48;106060;1271;22548;-77
2022/03/23 09:06:17;;;;;;;37.50;33.50;;;;;;;13.82;42.34;99392.91;106112;1271;22547;-77
2022/03/23 09:08:45;;;;;;;36.20;32.10;;;;;;;13.98;41.76;99392.95;106566;1271;22571;-76
2022/03/23 09:11:13;;;;;;;43.20;31.70;;;;;;;14.14;41.16;99394.64;106109;1271;22541;-77
2022/03/23 09:13:44;;;;;;;37.50;33.30;;;;;;;14.27;40.62;99390.41;106474;1271;22541;-76
2022/03/23 09:16:12;;;;;;;41.50;32.50;;;;;;;14.42;40.76;99390.70;106744;1271;25360;-77
2022/03/23 09:18:40;;;;;;;40.00;30.80;;;;;;;14.57;40.53;99390.71;106725;1271;23270;-77
2022/03/23 09:21:07;;;;;;;40.20;33.80;;;;;;;14.74;40.29;99388.30;106743;1271;22907;-76
2022/03/23 09:23:38;;;;;;;39.50;33.30;;;;;;;14.91;40.40;99384.89;106359;1271;22558;-77
2022/03/23 09:26:09;;;;;;;38.60;32.40;;;;;;;15.07;39.38;99383.94;106471;1271;22541;-77
2022/03/23 09:28:38;;;;;;;36.10;30.90;;;;;;;15.22;38.81;99385.61;106345;1271;23092;-77
2022/03/23 09:31:06;;;;;;;32.10;28.70;;;;;;;15.34;38.11;99382.20;106401;1271;22623;-78
2022/03/23 09:33:34;;;;;;;36.50;29.60;;;;;;;15.45;38.66;99376.38;106398;1271;24224;-78
2022/03/23 09:36:03;;;;;;;35.80;30.00;;;;;;;15.57;38.79;99376.96;106753;1271;24095;-78
2022/03/23 09:38:31;;;;;;;50.00;31.20;;;;;;;15.73;38.02;99372.01;106720;1271;22625;-78
2022/03/23 09:40:59;;;;;;;32.10;28.40;;;;;;;15.86;37.39;99373.91;106736;1270;22858;-77
2022/03/23 09:43:28;;;;;;;36.70;30.60;;;;;;;15.98;36.95;99370.80;106670;1271;22551;-76
2022/03/23 09:45:56;;;;;;;42.70;31.50;;;;;;;16.07;36.89;99368.40;106458;1271;24467;-77
2022/03/23 09:48:26;;;;;;;32.20;28.20;;;;;;;16.16;37.19;99371.67;106326;1271;22582;-78
2022/03/23 09:50:55;;;;;;;34.30;28.70;;;;;;;16.25;36.65;99368.28;106290;1271;25506;-77
2022/03/23 09:53:24;;;;;;;28.80;25.60;;;;;;;16.33;36.59;99362.32;106302;1271;22538;-78
2022/03/23 09:55:53;;;;;;;29.50;26.30;;;;;;;16.46;36.58;99357.27;106814;1271;25601;-77
2022/03/23 09:58:22;;;;;;;29.70;25.60;;;;;;;16.59;36.25;99356.52;106764;1271;22619;-78
2022/03/23 10:00:50;;;;;;;34.30;27.20;;;;;;;16.70;35.74;99353.55;106805;1271;22775;-78
2022/03/23 10:03:43;;;;;;;48.10;26.90;;;;;;;16.81;35.90;99348.30;106628;1272;22543;-77
2022/03/23 10:06:33;;;;;;;107.60;35.80;;;;;;;17.00;35.67;99345.98;106421;1271;22533;-77
2022/03/23 10:09:20;;;;;;;46.40;30.60;;;;;;;17.18;35.36;99344.45;106302;1271;25601;-77
2022/03/23 10:12:06;;;;;;;155.60;43.30;;;;;;;17.33;34.48;99337.47;106163;1271;26552;-77
2022/03/23 10:15:13;;;;;;;32.80;29.00;;;;;;;17.44;34.82;99329.80;106296;1270;25404;-76
2022/03/23 10:17:58;;;;;;;33.10;29.90;;;;;;;17.60;33.61;99332.89;106348;1271;24414;-78
2022/03/23 10:20:26;;;;;;;29.50;25.90;;;;;;;17.68;32.64;99326.02;106630;1271;25506;-76
2022/03/23 10:22:56;;;;;;;27.90;22.00;;;;;;;17.74;31.97;99328.67;106349;1271;22576;-77
2022/03/23 10:25:28;;;;;;;35.20;24.70;;;;;;;17.83;32.11;99327.11;106324;1271;22545;-75
2022/03/23 10:27:58;;;;;;;28.60;25.60;;;;;;;17.92;32.39;99321.73;106364;1270;23400;-77
2022/03/23 10:30:34;;;;;;;28.30;25.10;;;;;;;18.01;29.96;99318.36;106515;1271;22551;-77
2022/03/23 10:33:02;;;;;;;36.50;24.60;;;;;;;18.07;30.37;99314.77;106700;1271;22597;-78
2022/03/23 10:35:36;;;;;;;24.60;22.20;;;;;;;18.16;30.72;99312.28;106096;1271;25296;-75
2022/03/23 10:38:36;;;;;;;28.90;23.50;;;;;;;18.26;30.10;99311.86;106207;1271;23002;-77
2022/03/23 10:41:11;;;;;;;18.80;16.30;;;;;;;18.37;29.82;99313.02;106345;1271;22569;-78
2022/03/23 10:43:40;;;;;;;16.40;14.70;;;;;;;18.43;29.72;99314.88;106532;1271;22617;-77
2022/03/23 10:46:11;;;;;;;13.30;11.10;;;;;;;18.47;28.34;99306.20;106771;1271;23382;-77
2022/03/23 10:49:01;;;;;;;14.60;13.00;;;;;;;18.54;28.41;99304.73;106775;1271;22552;-76
2022/03/23 10:51:32;;;;;;;15.10;13.50;;;;;;;18.59;27.50;99303.02;106205;1271;22561;-76
2022/03/23 10:54:20;;;;;;;33.60;24.10;;;;;;;18.58;26.18;99295.17;106728;1271;23132;-76
2022/03/23 10:56:48;;;;;;;28.10;17.50;;;;;;;18.69;27.49;99288.48;106358;1270;24080;-76
2022/03/23 10:59:16;;;;;;;21.80;17.20;;;;;;;18.89;27.33;99283.70;106152;1271;24256;-78
2022/03/23 11:02:02;;;;;;;14.50;13.00;;;;;;;19.12;27.42;99278.48;106347;1271;23004;-78
2022/03/23 11:04:57;;;;;;;16.50;13.80;;;;;;;19.13;25.58;99275.17;106798;1271;22593;-77
2022/03/23 11:07:28;;;;;;;15.50;12.00;;;;;;;19.19;25.31;99268.98;106081;1271;22549;-77
2022/03/23 11:15:50;;;;;;;12.20;10.30;;;;;;;19.52;24.81;99260.11;106082;1271;22564;-77
2022/03/23 11:18:20;;;;;;;14.50;9.80;;;;;;;19.60;24.89;99257.71;106693;1271;22559;-78
2022/03/23 11:20:55;;;;;;;12.10;10.10;;;;;;;19.71;24.90;99250.80;106373;1271;24428;-78
2022/03/23 11:23:36;;;;;;;13.60;10.00;;;;;;;19.83;23.23;99248.73;106702;1271;25437;-77
2022/03/23 11:26:08;;;;;;;13.00;9.00;;;;;;;19.88;22.95;99250.03;106742;1271;22543;-77
2022/03/23 11:28:46;;;;;;;13.70;10.30;;;;;;;19.86;22.09;99244.23;106327;1271;24443;-77
2022/03/23 11:31:16;;;;;;;12.40;9.00;;;;;;;19.86;22.28;99237.14;106622;1271;25538;-77
2022/03/23 11:33:49;;;;;;;11.80;8.10;;;;;;;19.93;23.21;99227.87;106566;1272;25254;-77
2022/03/23 11:36:19;;;;;;;12.70;7.60;;;;;;;20.00;20.61;99229.17;106459;1271;22592;-76
2022/03/23 11:38:51;;;;;;;11.10;7.60;;;;;;;20.05;22.21;99228.12;106632;1271;23531;-76